sensor_id;sensor_type;location;lat;lon;timestamp;temperature;humidity
21267;DHT22;10791;53.108;18.326;2022-10-16T00:04:49;14.60;99.90
21267;DHT22;10791;53.108;18.326;2022-10-16T00:09:53;14.50;99.90
21267;DHT22;10791;53.108;18.326;2022-10-16T00:14:56;14.30;99.90
21267;DHT22;10791;53.108;18.326;2022-10-16T00:19:59;14.30;99.90
21267;DHT22;10791;53.108;18.326;2022-10-16T00:25:02;14.10;99.90
21267;DHT22;10791;53.108;18.326;2022-10-16T00:30:05;14.00;99.90
21267;DHT22;10791;53.108;18.326;2022-10-16T00:35:10;13.80;99.90
21267;DHT22;10791;53.108;18.326;2022-10-16T00:40:13;13.80;99.90
21267;DHT22;10791;53.108;18.326;2022-10-16T00:45:17;13.70;99.90
21267;DHT22;10791;53.108;18.326;2022-10-16T00:50:27;13.50;99.90
21267;DHT22;10791;53.108;18.326;2022-10-16T00:55:31;13.40;99.90
21267;DHT22;10791;53.108;18.326;2022-10-16T01:00:34;13.40;99.90
21267;DHT22;10791;53.108;18.326;2022-10-16T01:05:46;13.30;99.90
21267;DHT22;10791;53.108;18.326;2022-10-16T01:10:59;13.30;99.90
21267;DHT22;10791;53.108;18.326;2022-10-16T01:16:16;13.30;99.90
21267;DHT22;10791;53.108;18.326;2022-10-16T01:21:36;13.30;99.90
21267;DHT22;10791;53.108;18.326;2022-10-16T01:43:17;13.30;99.90
21267;DHT22;10791;53.108;18.326;2022-10-16T01:48:22;13.40;99.90
21267;DHT22;10791;53.108;18.326;2022-10-16T01:53:26;13.40;99.90
21267;DHT22;10791;53.108;18.326;2022-10-16T01:58:30;13.40;99.90
21267;DHT22;10791;53.108;18.326;2022-10-16T02:03:38;13.40;99.90
21267;DHT22;10791;53.108;18.326;2022-10-16T02:08:42;13.40;99.90
21267;DHT22;10791;53.108;18.326;2022-10-16T02:13:50;13.40;99.90
21267;DHT22;10791;53.108;18.326;2022-10-16T02:18:55;13.40;99.90
21267;DHT22;10791;53.108;18.326;2022-10-16T02:29:26;13.40;99.90
21267;DHT22;10791;53.108;18.326;2022-10-16T02:34:30;13.40;99.90
21267;DHT22;10791;53.108;18.326;2022-10-16T02:39:35;13.30;99.90
21267;DHT22;10791;53.108;18.326;2022-10-16T02:44:38;13.30;99.90
21267;DHT22;10791;53.108;18.326;2022-10-16T02:49:41;13.20;99.90
21267;DHT22;10791;53.108;18.326;2022-10-16T02:54:45;13.10;99.90
21267;DHT22;10791;53.108;18.326;2022-10-16T02:59:48;13.10;99.90
21267;DHT22;10791;53.108;18.326;2022-10-16T03:04:51;13.10;99.90
21267;DHT22;10791;53.108;18.326;2022-10-16T03:09:54;13.10;99.90
21267;DHT22;10791;53.108;18.326;2022-10-16T03:14:58;13.10;99.90
21267;DHT22;10791;53.108;18.326;2022-10-16T03:20:02;13.20;99.90
21267;DHT22;10791;53.108;18.326;2022-10-16T03:25:06;13.20;99.90
21267;DHT22;10791;53.108;18.326;2022-10-16T03:30:10;13.20;99.90
21267;DHT22;10791;53.108;18.326;2022-10-16T03:35:13;13.30;99.90
21267;DHT22;10791;53.108;18.326;2022-10-16T03:40:16;13.30;99.90
21267;DHT22;10791;53.108;18.326;2022-10-16T03:45:19;13.30;99.90
21267;DHT22;10791;53.108;18.326;2022-10-16T03:50:22;13.40;99.90
21267;DHT22;10791;53.108;18.326;2022-10-16T03:55:25;13.40;99.90
21267;DHT22;10791;53.108;18.326;2022-10-16T04:00:28;13.40;99.90
21267;DHT22;10791;53.108;18.326;2022-10-16T04:05:31;13.50;99.90
21267;DHT22;10791;53.108;18.326;2022-10-16T04:10:35;13.60;99.90
21267;DHT22;10791;53.108;18.326;2022-10-16T04:15:38;13.60;99.90
21267;DHT22;10791;53.108;18.326;2022-10-16T04:20:42;13.60;99.90
21267;DHT22;10791;53.108;18.326;2022-10-16T04:25:45;13.60;99.90
21267;DHT22;10791;53.108;18.326;2022-10-16T04:30:48;13.70;99.90
21267;DHT22;10791;53.108;18.326;2022-10-16T04:35:59;13.70;99.90
21267;DHT22;10791;53.108;18.326;2022-10-16T04:41:03;13.70;99.90
21267;DHT22;10791;53.108;18.326;2022-10-16T04:46:07;13.70;99.90
21267;DHT22;10791;53.108;18.326;2022-10-16T04:51:10;13.60;99.90
21267;DHT22;10791;53.108;18.326;2022-10-16T04:56:13;13.70;99.90
21267;DHT22;10791;53.108;18.326;2022-10-16T05:01:18;13.70;99.90
21267;DHT22;10791;53.108;18.326;2022-10-16T05:06:21;13.70;99.90
21267;DHT22;10791;53.108;18.326;2022-10-16T05:11:25;13.70;99.90
21267;DHT22;10791;53.108;18.326;2022-10-16T05:16:28;13.70;99.90
21267;DHT22;10791;53.108;18.326;2022-10-16T05:21:31;13.70;99.90
21267;DHT22;10791;53.108;18.326;2022-10-16T05:26:35;13.70;99.90
21267;DHT22;10791;53.108;18.326;2022-10-16T05:31:38;13.80;99.90
21267;DHT22;10791;53.108;18.326;2022-10-16T05:36:41;13.80;99.90
21267;DHT22;10791;53.108;18.326;2022-10-16T05:41:45;13.80;99.90
21267;DHT22;10791;53.108;18.326;2022-10-16T05:46:48;13.80;99.90
21267;DHT22;10791;53.108;18.326;2022-10-16T05:51:51;13.90;99.90
21267;DHT22;10791;53.108;18.326;2022-10-16T05:56:54;13.90;99.90
21267;DHT22;10791;53.108;18.326;2022-10-16T06:01:57;13.90;99.90
21267;DHT22;10791;53.108;18.326;2022-10-16T06:07:00;13.90;99.90
21267;DHT22;10791;53.108;18.326;2022-10-16T06:12:04;13.90;99.90
21267;DHT22;10791;53.108;18.326;2022-10-16T06:17:07;13.90;99.90
21267;DHT22;10791;53.108;18.326;2022-10-16T06:22:10;14.00;99.90
21267;DHT22;10791;53.108;18.326;2022-10-16T06:27:14;14.10;99.90
21267;DHT22;10791;53.108;18.326;2022-10-16T06:32:17;14.20;99.90
21267;DHT22;10791;53.108;18.326;2022-10-16T06:37:21;14.30;99.90
21267;DHT22;10791;53.108;18.326;2022-10-16T06:42:25;14.40;99.90
21267;DHT22;10791;53.108;18.326;2022-10-16T06:47:28;14.50;99.90
21267;DHT22;10791;53.108;18.326;2022-10-16T06:52:32;14.50;99.90
21267;DHT22;10791;53.108;18.326;2022-10-16T06:57:35;14.60;99.90
21267;DHT22;10791;53.108;18.326;2022-10-16T07:02:38;14.60;99.90
21267;DHT22;10791;53.108;18.326;2022-10-16T07:07:41;14.70;99.90
21267;DHT22;10791;53.108;18.326;2022-10-16T07:12:45;14.70;99.90
21267;DHT22;10791;53.108;18.326;2022-10-16T07:17:48;14.80;99.90
21267;DHT22;10791;53.108;18.326;2022-10-16T07:22:52;14.90;99.90
21267;DHT22;10791;53.108;18.326;2022-10-16T07:27:55;15.00;99.90
21267;DHT22;10791;53.108;18.326;2022-10-16T07:32:58;15.10;99.90
21267;DHT22;10791;53.108;18.326;2022-10-16T07:38:01;15.30;99.90
21267;DHT22;10791;53.108;18.326;2022-10-16T07:43:05;15.50;99.90
21267;DHT22;10791;53.108;18.326;2022-10-16T07:48:08;15.70;99.90
21267;DHT22;10791;53.108;18.326;2022-10-16T07:53:12;16.00;99.90
21267;DHT22;10791;53.108;18.326;2022-10-16T07:58:18;16.30;99.90
21267;DHT22;10791;53.108;18.326;2022-10-16T08:03:22;16.50;99.90
21267;DHT22;10791;53.108;18.326;2022-10-16T08:08:25;16.60;99.90
21267;DHT22;10791;53.108;18.326;2022-10-16T08:13:30;16.60;99.90
21267;DHT22;10791;53.108;18.326;2022-10-16T08:18:34;16.60;99.90
21267;DHT22;10791;53.108;18.326;2022-10-16T08:23:38;16.80;99.90
21267;DHT22;10791;53.108;18.326;2022-10-16T08:28:42;17.00;99.90
21267;DHT22;10791;53.108;18.326;2022-10-16T08:33:46;17.10;99.90
21267;DHT22;10791;53.108;18.326;2022-10-16T08:38:50;17.40;99.90
21267;DHT22;10791;53.108;18.326;2022-10-16T08:44:07;17.60;99.90
21267;DHT22;10791;53.108;18.326;2022-10-16T08:49:14;17.70;99.90
21267;DHT22;10791;53.108;18.326;2022-10-16T08:59:23;17.80;99.90
21267;DHT22;10791;53.108;18.326;2022-10-16T09:20:30;18.30;99.90
21267;DHT22;10791;53.108;18.326;2022-10-16T09:25:35;18.40;99.90
21267;DHT22;10791;53.108;18.326;2022-10-16T09:30:39;18.40;99.90
21267;DHT22;10791;53.108;18.326;2022-10-16T09:35:50;18.50;99.90
21267;DHT22;10791;53.108;18.326;2022-10-16T09:40:56;18.40;99.90
21267;DHT22;10791;53.108;18.326;2022-10-16T09:46:07;18.50;99.90
21267;DHT22;10791;53.108;18.326;2022-10-16T09:51:19;18.50;99.90
21267;DHT22;10791;53.108;18.326;2022-10-16T09:56:33;18.60;99.90
21267;DHT22;10791;53.108;18.326;2022-10-16T10:06:48;18.80;99.90
21267;DHT22;10791;53.108;18.326;2022-10-16T10:11:56;18.80;99.90
21267;DHT22;10791;53.108;18.326;2022-10-16T10:17:11;18.90;99.90
21267;DHT22;10791;53.108;18.326;2022-10-16T10:43:48;19.50;99.90
21267;DHT22;10791;53.108;18.326;2022-10-16T10:59:42;19.50;99.90
21267;DHT22;10791;53.108;18.326;2022-10-16T11:10:32;19.80;99.90
21267;DHT22;10791;53.108;18.326;2022-10-16T11:15:38;19.90;99.90
21267;DHT22;10791;53.108;18.326;2022-10-16T11:20:47;20.10;99.90
21267;DHT22;10791;53.108;18.326;2022-10-16T11:25:56;20.10;99.90
21267;DHT22;10791;53.108;18.326;2022-10-16T11:31:13;20.00;99.90
21267;DHT22;10791;53.108;18.326;2022-10-16T11:36:31;19.90;99.90
21267;DHT22;10791;53.108;18.326;2022-10-16T11:41:49;19.90;99.90
21267;DHT22;10791;53.108;18.326;2022-10-16T11:53:11;20.10;99.90
21267;DHT22;10791;53.108;18.326;2022-10-16T11:58:41;19.90;99.90
21267;DHT22;10791;53.108;18.326;2022-10-16T12:04:27;19.80;99.90
21267;DHT22;10791;53.108;18.326;2022-10-16T12:09:38;19.70;99.90
21267;DHT22;10791;53.108;18.326;2022-10-16T12:14:44;19.70;99.90
21267;DHT22;10791;53.108;18.326;2022-10-16T12:30:31;19.70;99.90
21267;DHT22;10791;53.108;18.326;2022-10-16T12:35:43;19.60;99.90
21267;DHT22;10791;53.108;18.326;2022-10-16T12:41:23;19.60;99.90
21267;DHT22;10791;53.108;18.326;2022-10-16T12:52:35;19.60;99.90
21267;DHT22;10791;53.108;18.326;2022-10-16T13:14:09;19.40;99.90
21267;DHT22;10791;53.108;18.326;2022-10-16T13:19:42;19.30;99.90
21267;DHT22;10791;53.108;18.326;2022-10-16T13:25:05;19.30;99.90
21267;DHT22;10791;53.108;18.326;2022-10-16T13:30:24;19.30;99.90
21267;DHT22;10791;53.108;18.326;2022-10-16T13:35:34;19.30;99.90
21267;DHT22;10791;53.108;18.326;2022-10-16T13:40:58;19.40;99.90
21267;DHT22;10791;53.108;18.326;2022-10-16T13:46:07;19.60;99.90
21267;DHT22;10791;53.108;18.326;2022-10-16T13:51:18;19.70;99.90
21267;DHT22;10791;53.108;18.326;2022-10-16T13:56:24;19.90;99.90
21267;DHT22;10791;53.108;18.326;2022-10-16T14:01:34;19.90;99.90
21267;DHT22;10791;53.108;18.326;2022-10-16T14:06:42;19.90;99.90
21267;DHT22;10791;53.108;18.326;2022-10-16T14:11:49;19.80;99.90
21267;DHT22;10791;53.108;18.326;2022-10-16T14:16:54;19.70;99.90
21267;DHT22;10791;53.108;18.326;2022-10-16T14:21:59;19.70;99.90
21267;DHT22;10791;53.108;18.326;2022-10-16T14:27:31;19.60;99.90
21267;DHT22;10791;53.108;18.326;2022-10-16T14:32:34;19.50;99.90
21267;DHT22;10791;53.108;18.326;2022-10-16T14:37:39;19.50;99.90
21267;DHT22;10791;53.108;18.326;2022-10-16T14:42:44;19.40;99.90
21267;DHT22;10791;53.108;18.326;2022-10-16T14:47:53;19.50;99.90
21267;DHT22;10791;53.108;18.326;2022-10-16T14:52:58;19.60;99.90
21267;DHT22;10791;53.108;18.326;2022-10-16T14:58:02;19.60;99.90
21267;DHT22;10791;53.108;18.326;2022-10-16T15:03:05;19.50;99.90
21267;DHT22;10791;53.108;18.326;2022-10-16T15:08:08;19.50;99.90
21267;DHT22;10791;53.108;18.326;2022-10-16T15:13:13;19.40;99.90
21267;DHT22;10791;53.108;18.326;2022-10-16T15:18:16;19.20;99.90
21267;DHT22;10791;53.108;18.326;2022-10-16T15:23:23;19.10;99.90
21267;DHT22;10791;53.108;18.326;2022-10-16T15:28:31;19.00;99.90
21267;DHT22;10791;53.108;18.326;2022-10-16T15:33:34;18.80;99.90
21267;DHT22;10791;53.108;18.326;2022-10-16T15:38:41;18.60;99.90
21267;DHT22;10791;53.108;18.326;2022-10-16T15:43:47;18.50;99.90
21267;DHT22;10791;53.108;18.326;2022-10-16T15:48:56;18.30;99.90
21267;DHT22;10791;53.108;18.326;2022-10-16T15:54:00;18.10;99.90
21267;DHT22;10791;53.108;18.326;2022-10-16T15:59:05;18.00;99.90
21267;DHT22;10791;53.108;18.326;2022-10-16T16:04:08;17.80;99.90
21267;DHT22;10791;53.108;18.326;2022-10-16T16:09:22;17.70;99.90
21267;DHT22;10791;53.108;18.326;2022-10-16T16:14:25;17.40;99.90
21267;DHT22;10791;53.108;18.326;2022-10-16T16:19:31;17.20;99.90
21267;DHT22;10791;53.108;18.326;2022-10-16T16:24:34;17.00;99.90
21267;DHT22;10791;53.108;18.326;2022-10-16T16:29:38;16.80;99.90
21267;DHT22;10791;53.108;18.326;2022-10-16T16:34:41;16.60;99.90
21267;DHT22;10791;53.108;18.326;2022-10-16T16:39:45;16.40;99.90
21267;DHT22;10791;53.108;18.326;2022-10-16T16:44:49;16.20;99.90
21267;DHT22;10791;53.108;18.326;2022-10-16T16:49:54;16.00;99.90
21267;DHT22;10791;53.108;18.326;2022-10-16T16:54:58;15.80;99.90
21267;DHT22;10791;53.108;18.326;2022-10-16T17:00:03;15.60;99.90
21267;DHT22;10791;53.108;18.326;2022-10-16T17:05:07;15.40;99.90
21267;DHT22;10791;53.108;18.326;2022-10-16T17:10:11;15.00;99.90
21267;DHT22;10791;53.108;18.326;2022-10-16T17:15:15;14.80;99.90
21267;DHT22;10791;53.108;18.326;2022-10-16T17:20:19;14.50;99.90
21267;DHT22;10791;53.108;18.326;2022-10-16T17:25:24;14.40;99.90
21267;DHT22;10791;53.108;18.326;2022-10-16T17:30:30;14.20;99.90
21267;DHT22;10791;53.108;18.326;2022-10-16T17:35:41;14.10;99.90
21267;DHT22;10791;53.108;18.326;2022-10-16T17:40:52;13.90;99.90
21267;DHT22;10791;53.108;18.326;2022-10-16T17:45:56;13.80;99.90
21267;DHT22;10791;53.108;18.326;2022-10-16T17:51:03;13.70;99.90
21267;DHT22;10791;53.108;18.326;2022-10-16T17:56:11;13.60;99.90
21267;DHT22;10791;53.108;18.326;2022-10-16T18:01:21;13.40;99.90
21267;DHT22;10791;53.108;18.326;2022-10-16T18:06:29;13.20;99.90
21267;DHT22;10791;53.108;18.326;2022-10-16T18:11:34;13.10;99.90
21267;DHT22;10791;53.108;18.326;2022-10-16T18:16:43;13.00;99.90
21267;DHT22;10791;53.108;18.326;2022-10-16T18:21:48;12.80;99.90
21267;DHT22;10791;53.108;18.326;2022-10-16T18:26:54;12.70;99.90
21267;DHT22;10791;53.108;18.326;2022-10-16T18:31:59;12.60;99.90
21267;DHT22;10791;53.108;18.326;2022-10-16T18:37:04;12.60;99.90
21267;DHT22;10791;53.108;18.326;2022-10-16T18:42:08;12.40;99.90
21267;DHT22;10791;53.108;18.326;2022-10-16T18:47:12;12.20;99.90
21267;DHT22;10791;53.108;18.326;2022-10-16T18:52:16;12.00;99.90
21267;DHT22;10791;53.108;18.326;2022-10-16T18:57:22;11.90;99.90
21267;DHT22;10791;53.108;18.326;2022-10-16T19:02:27;11.80;99.90
21267;DHT22;10791;53.108;18.326;2022-10-16T19:07:33;11.70;99.90
21267;DHT22;10791;53.108;18.326;2022-10-16T19:12:38;11.70;99.90
21267;DHT22;10791;53.108;18.326;2022-10-16T19:17:46;11.70;99.90
21267;DHT22;10791;53.108;18.326;2022-10-16T19:22:53;11.70;99.90
21267;DHT22;10791;53.108;18.326;2022-10-16T19:28:01;11.50;99.90
21267;DHT22;10791;53.108;18.326;2022-10-16T19:33:09;11.40;99.90
21267;DHT22;10791;53.108;18.326;2022-10-16T19:38:14;11.20;99.90
21267;DHT22;10791;53.108;18.326;2022-10-16T19:43:17;11.00;99.90
21267;DHT22;10791;53.108;18.326;2022-10-16T19:48:21;11.00;99.90
21267;DHT22;10791;53.108;18.326;2022-10-16T19:53:25;10.90;99.90
21267;DHT22;10791;53.108;18.326;2022-10-16T19:58:31;10.90;99.90
21267;DHT22;10791;53.108;18.326;2022-10-16T20:03:35;10.80;99.90
21267;DHT22;10791;53.108;18.326;2022-10-16T20:08:41;10.80;99.90
21267;DHT22;10791;53.108;18.326;2022-10-16T20:13:47;10.60;99.90
21267;DHT22;10791;53.108;18.326;2022-10-16T20:18:52;10.60;99.90
21267;DHT22;10791;53.108;18.326;2022-10-16T20:23:56;10.60;99.90
21267;DHT22;10791;53.108;18.326;2022-10-16T20:29:00;10.50;99.90
21267;DHT22;10791;53.108;18.326;2022-10-16T20:34:07;10.30;99.90
21267;DHT22;10791;53.108;18.326;2022-10-16T20:39:11;10.30;99.90
21267;DHT22;10791;53.108;18.326;2022-10-16T20:44:16;10.30;99.90
21267;DHT22;10791;53.108;18.326;2022-10-16T20:49:22;10.30;99.90
21267;DHT22;10791;53.108;18.326;2022-10-16T20:54:43;10.20;99.90
21267;DHT22;10791;53.108;18.326;2022-10-16T20:59:48;10.10;99.90
21267;DHT22;10791;53.108;18.326;2022-10-16T21:04:52;9.90;99.90
21267;DHT22;10791;53.108;18.326;2022-10-16T21:09:57;9.80;99.90
21267;DHT22;10791;53.108;18.326;2022-10-16T21:15:00;9.80;99.90
21267;DHT22;10791;53.108;18.326;2022-10-16T21:20:19;9.80;99.90
21267;DHT22;10791;53.108;18.326;2022-10-16T21:25:22;9.70;99.90
21267;DHT22;10791;53.108;18.326;2022-10-16T21:30:27;9.70;99.90
21267;DHT22;10791;53.108;18.326;2022-10-16T21:35:32;9.60;99.90
21267;DHT22;10791;53.108;18.326;2022-10-16T21:40:38;9.50;99.90
21267;DHT22;10791;53.108;18.326;2022-10-16T21:45:42;9.40;99.90
21267;DHT22;10791;53.108;18.326;2022-10-16T21:50:48;9.40;99.90
21267;DHT22;10791;53.108;18.326;2022-10-16T21:55:51;9.30;99.90
21267;DHT22;10791;53.108;18.326;2022-10-16T22:00:55;9.20;99.90
21267;DHT22;10791;53.108;18.326;2022-10-16T22:12:33;9.10;99.90
21267;DHT22;10791;53.108;18.326;2022-10-16T22:17:37;9.10;99.90
21267;DHT22;10791;53.108;18.326;2022-10-16T22:22:41;9.10;99.90
21267;DHT22;10791;53.108;18.326;2022-10-16T22:27:44;9.00;99.90
21267;DHT22;10791;53.108;18.326;2022-10-16T22:32:48;8.90;99.90
21267;DHT22;10791;53.108;18.326;2022-10-16T22:37:51;8.60;99.90
21267;DHT22;10791;53.108;18.326;2022-10-16T22:42:54;8.50;99.90
21267;DHT22;10791;53.108;18.326;2022-10-16T22:47:59;8.40;99.90
21267;DHT22;10791;53.108;18.326;2022-10-16T22:53:03;8.30;99.90
21267;DHT22;10791;53.108;18.326;2022-10-16T22:58:07;8.30;99.90
21267;DHT22;10791;53.108;18.326;2022-10-16T23:03:11;8.30;99.90
21267;DHT22;10791;53.108;18.326;2022-10-16T23:08:14;8.30;99.90
21267;DHT22;10791;53.108;18.326;2022-10-16T23:13:17;8.30;99.90
21267;DHT22;10791;53.108;18.326;2022-10-16T23:18:21;8.30;99.90
21267;DHT22;10791;53.108;18.326;2022-10-16T23:23:24;8.30;99.90
21267;DHT22;10791;53.108;18.326;2022-10-16T23:28:27;8.30;99.90
21267;DHT22;10791;53.108;18.326;2022-10-16T23:33:32;8.30;99.90
21267;DHT22;10791;53.108;18.326;2022-10-16T23:38:35;8.20;99.90
21267;DHT22;10791;53.108;18.326;2022-10-16T23:43:39;8.20;99.90
21267;DHT22;10791;53.108;18.326;2022-10-16T23:48:42;8.20;99.90
21267;DHT22;10791;53.108;18.326;2022-10-16T23:53:46;8.20;99.90
21267;DHT22;10791;53.108;18.326;2022-10-16T23:58:49;8.20;99.90
